Time;durP1;ratioP1;P1;durP2;ratioP2;P2;SDS_P1;SDS_P2;PMS_P1;PMS_P2;Temp;Humidity;BMP_temperature;BMP_pressure;BME280_temperature;BME280_humidity;BME280_pressure;Samples;Min_cycle;Max_cycle;Signal;HPM_P1;HPM_P2
2022/08/12 00:42:56;;;;;;;4.35;1.25;;;18.40;79.10;;;18.04;100.00;97697.38;4945176;28;20066;-64
2022/08/12 00:45:24;;;;;;;5.32;1.50;;;18.40;79.20;;;17.72;100.00;97696.03;4962646;28;20126;-65
2022/08/12 00:47:52;;;;;;;4.68;1.52;;;18.30;79.30;;;17.76;100.00;97688.78;4941887;28;20134;-64
2022/08/12 00:50:22;;;;;;;8.35;1.63;;;18.30;79.60;;;17.74;100.00;97695.91;4953436;28;20070;-64
2022/08/12 00:52:51;;;;;;;2.60;1.42;;;18.20;80.00;;;17.67;100.00;97695.50;4957097;28;20047;-64
2022/08/12 00:55:19;;;;;;;7.70;1.60;;;18.20;80.30;;;17.66;100.00;97699.09;4942311;28;20081;-64
2022/08/12 00:57:50;;;;;;;2.75;1.25;;;18.20;80.30;;;17.69;100.00;97691.00;4940619;28;20142;-64
2022/08/12 01:00:22;;;;;;;4.05;1.77;;;18.10;80.50;;;17.58;100.00;97697.94;4961819;28;20043;-64
2022/08/12 01:02:56;;;;;;;4.85;1.50;;;18.10;80.50;;;17.31;100.00;97697.09;4959703;28;20479;-64
2022/08/12 01:13:48;;;;;;;6.10;1.60;;;17.70;82.10;;;16.90;100.00;97689.38;4945696;28;20070;-64
2022/08/12 01:16:21;;;;;;;3.10;1.60;;;17.60;82.10;;;16.83;100.00;97681.09;4950157;28;20442;-64
2022/08/12 01:18:51;;;;;;;4.63;1.70;;;17.50;82.70;;;16.69;100.00;97683.75;4941208;28;20074;-63
2022/08/12 01:21:54;;;;;;;4.40;1.60;;;17.40;83.30;;;16.49;100.00;97690.31;4939679;28;20641;-63
2022/08/12 01:25:08;;;;;;;5.82;1.58;;;;;;;16.54;100.00;97688.22;4938708;28;20123;-64
2022/08/12 01:27:39;;;;;;;5.18;1.70;;;17.10;83.80;;;16.45;100.00;97688.81;4917096;28;20461;-64
2022/08/12 01:30:10;;;;;;;3.13;1.60;;;17.10;84.50;;;16.52;100.00;97701.41;4952518;28;20126;-64
2022/08/12 01:32:40;;;;;;;3.70;1.70;;;17.10;84.60;;;16.52;100.00;97696.19;4958190;28;20473;-64
2022/08/12 01:35:15;;;;;;;4.07;1.50;;;17.10;84.50;;;16.41;100.00;97693.41;4939799;28;20710;-64
2022/08/12 01:38:03;;;;;;;2.85;1.38;;;17.10;84.40;;;16.46;100.00;97701.81;4943263;28;20086;-63
2022/08/12 01:40:35;;;;;;;3.25;1.40;;;;;;;16.41;100.00;97697.81;4958171;28;20061;-64
2022/08/12 01:43:09;;;;;;;2.47;1.52;;;17.10;84.10;;;16.45;100.00;97699.31;4941404;28;20059;-63
2022/08/12 01:45:50;;;;;;;2.83;1.40;;;17.10;85.10;;;16.39;100.00;97697.91;4940399;28;20047;-64
2022/08/12 01:48:52;;;;;;;3.95;1.90;;;17.00;85.20;;;15.90;100.00;97698.41;4942289;28;20048;-64
2022/08/12 01:51:42;;;;;;;4.68;1.50;;;16.90;85.40;;;15.97;100.00;97701.47;4950987;28;20521;-64
2022/08/12 01:54:48;;;;;;;2.95;1.65;;;16.80;86.40;;;16.00;100.00;97693.44;4938980;28;20359;-65
2022/08/12 01:57:27;;;;;;;3.80;1.60;;;16.60;86.50;;;16.09;100.00;97692.84;4954734;28;20664;-64
2022/08/12 02:00:18;;;;;;;3.83;1.65;;;16.60;86.80;;;16.04;100.00;97690.53;4944999;28;20051;-64
2022/08/12 02:03:03;;;;;;;4.65;1.75;;;16.60;86.80;;;16.00;100.00;97696.88;4939145;28;20162;-64
2022/08/12 02:12:12;;;;;;;4.75;1.25;;;16.60;87.10;;;16.01;100.00;97685.47;4956703;28;20047;-64
2022/08/12 02:14:55;;;;;;;3.25;1.35;;;16.60;86.80;;;16.04;100.00;97684.44;4958303;28;20051;-64
2022/08/12 02:18:31;;;;;;;2.58;1.13;;;16.60;87.30;;;15.67;100.00;97689.31;4939430;29;20055;-64
2022/08/12 02:21:06;;;;;;;2.83;1.40;;;16.50;87.70;;;15.79;100.00;97685.13;4935644;28;20130;-64
2022/08/12 02:23:36;;;;;;;2.90;1.70;;;16.40;87.90;;;15.74;100.00;97688.03;4953409;28;20054;-64
2022/08/12 02:26:08;;;;;;;2.72;1.23;;;16.30;88.00;;;15.74;100.00;97692.44;4943587;28;20043;-64
2022/08/12 02:28:38;;;;;;;1.77;1.00;;;16.30;88.30;;;15.71;100.00;97687.38;4945244;28;20071;-64
2022/08/12 02:31:07;;;;;;;4.50;1.40;;;16.30;88.50;;;15.63;100.00;97687.81;4958268;28;20053;-64
2022/08/12 02:33:36;;;;;;;2.53;1.42;;;16.20;88.30;;;15.75;100.00;97678.41;4946023;28;20059;-64
2022/08/12 02:36:04;;;;;;;3.22;1.20;;;16.20;88.30;;;15.71;100.00;97680.34;4962758;28;20326;-64
2022/08/12 02:38:32;;;;;;;2.85;1.50;;;16.30;89.10;;;15.42;100.00;97679.50;4946490;28;20137;-64
2022/08/12 02:41:05;;;;;;;9.10;1.58;;;16.20;89.20;;;15.55;100.00;97683.03;4945955;28;20146;-64
2022/08/12 02:43:45;;;;;;;5.13;1.55;;;16.10;89.80;;;15.50;100.00;97682.50;4962310;28;20525;-64
2022/08/12 02:46:18;;;;;;;4.80;1.60;;;16.10;89.50;;;15.57;100.00;97683.78;4962272;28;20118;-64
2022/08/12 02:49:02;;;;;;;3.45;1.70;;;16.10;89.70;;;15.68;100.00;97685.75;4966374;28;20550;-64
2022/08/12 02:51:45;;;;;;;3.95;1.48;;;16.10;89.60;;;15.58;100.00;97685.50;4950438;28;20114;-64
2022/08/12 02:54:12;;;;;;;5.35;1.55;;;16.10;89.50;;;15.57;100.00;97686.41;4950302;28;20536;-64
2022/08/12 02:56:41;;;;;;;3.63;1.50;;;16.10;89.50;;;15.66;100.00;97695.47;4945607;28;20130;-64
2022/08/12 02:59:21;;;;;;;2.30;1.25;;;16.10;88.90;;;15.61;100.00;97687.06;4947753;29;20087;-64
2022/08/12 03:01:53;;;;;;;2.75;1.40;;;16.20;89.00;;;15.63;100.00;97686.03;4960331;28;20047;-64
2022/08/12 03:04:55;;;;;;;2.30;1.45;;;16.10;89.00;;;15.53;100.00;97687.56;4947148;28;20054;-63
2022/08/12 03:07:25;;;;;;;3.88;1.30;;;16.10;89.30;;;15.63;100.00;97688.66;4962106;28;20052;-64
2022/08/12 03:10:14;;;;;;;4.25;1.48;;;16.10;89.20;;;15.64;100.00;97689.50;4948225;28;20086;-63
2022/08/12 03:12:45;;;;;;;2.53;1.30;;;16.20;89.00;;;15.59;100.00;97687.16;4959464;28;20047;-63
2022/08/12 03:15:21;;;;;;;4.53;1.42;;;16.20;89.00;;;15.60;100.00;97688.84;4945872;29;20051;-63
2022/08/12 03:18:17;;;;;;;2.80;1.23;;;16.10;88.90;;;15.49;100.00;97691.28;4942782;28;20525;-63
2022/08/12 03:20:53;;;;;;;2.70;1.48;;;16.20;89.40;;;15.48;100.00;97689.59;4959332;28;20201;-64
2022/08/12 03:23:22;;;;;;;3.25;1.40;;;16.10;89.60;;;15.56;100.00;97684.75;4946918;28;20076;-63
2022/08/12 03:26:00;;;;;;;4.28;1.52;;;16.10;89.10;;;15.51;100.00;97689.41;4958195;28;20528;-64
2022/08/12 03:28:52;;;;;;;4.88;1.63;;;16.10;89.80;;;15.67;100.00;97691.94;4945876;28;20054;-63
2022/08/12 03:31:28;;;;;;;5.35;1.48;;;16.10;89.50;;;15.79;100.00;97700.84;4946315;28;20044;-63
2022/08/12 03:34:10;;;;;;;2.72;1.40;;;16.20;89.50;;;15.67;100.00;97705.03;4946876;28;20051;-64
2022/08/12 03:36:40;;;;;;;3.10;1.40;;;16.30;89.40;;;15.48;100.00;97700.88;4942063;28;20051;-63
2022/08/12 03:42:05;;;;;;;3.20;1.50;;;16.10;90.00;;;15.44;100.00;97701.16;4945227;28;20051;-63
2022/08/12 04:01:26;;;;;;;3.85;1.38;;;15.80;91.10;;;15.15;100.00;97709.00;4940079;29;20135;-64
2022/08/12 04:03:54;;;;;;;4.95;1.45;;;15.70;91.10;;;15.09;100.00;97713.75;4954385;28;20134;-64
2022/08/12 04:06:27;;;;;;;2.72;1.17;;;15.70;91.30;;;15.18;100.00;97713.19;4942051;28;20075;-63
2022/08/12 04:09:04;;;;;;;5.80;1.40;;;15.70;91.40;;;15.14;100.00;97719.53;4954287;28;20429;-64
2022/08/12 04:14:31;;;;;;;2.28;1.30;;;15.70;91.60;;;15.09;100.00;97725.03;4954585;28;20055;-64
2022/08/12 04:17:00;;;;;;;3.70;1.60;;;15.70;91.70;;;15.10;100.00;97729.34;4940496;28;20054;-64
2022/08/12 04:19:27;;;;;;;6.00;1.58;;;15.70;91.80;;;15.10;100.00;97723.25;4957511;28;20139;-64
2022/08/12 04:21:55;;;;;;;6.35;1.65;;;15.70;91.90;;;15.09;100.00;97726.81;4954333;28;20138;-64
2022/08/12 04:24:33;;;;;;;3.35;1.60;;;15.70;91.90;;;15.12;100.00;97724.00;4942010;28;20158;-64
2022/08/12 04:27:07;;;;;;;5.65;1.50;;;15.70;92.00;;;15.15;100.00;97724.69;4940767;28;20049;-64
2022/08/12 04:29:36;;;;;;;3.72;1.65;;;15.70;92.00;;;15.11;100.00;97720.56;4944069;28;20138;-64
2022/08/12 04:32:26;;;;;;;3.33;1.30;;;15.70;91.90;;;15.08;100.00;97730.38;4940172;28;20047;-64
2022/08/12 04:34:54;;;;;;;4.00;1.50;;;15.70;92.00;;;15.00;100.00;97722.94;4955571;28;20055;-64
2022/08/12 04:37:22;;;;;;;6.40;1.40;;;15.70;92.10;;;15.01;100.00;97729.88;4941729;28;20499;-64
2022/08/12 04:39:49;;;;;;;4.38;1.80;;;15.70;92.20;;;14.98;100.00;97730.88;4942904;28;20144;-64
2022/08/12 04:42:18;;;;;;;4.03;1.40;;;15.60;92.30;;;14.99;100.00;97735.19;4955401;28;20194;-64
2022/08/12 04:44:47;;;;;;;5.70;1.67;;;15.60;92.30;;;14.92;100.00;97733.03;4944431;28;20142;-64
2022/08/12 04:47:15;;;;;;;4.63;1.45;;;15.60;92.50;;;14.91;100.00;97736.56;4941083;29;20150;-64
2022/08/12 04:49:45;;;;;;;2.78;1.65;;;15.60;92.50;;;14.99;100.00;97734.34;4939535;28;20048;-64
2022/08/12 04:52:13;;;;;;;4.13;1.75;;;15.60;92.70;;;15.01;100.00;97748.19;4946054;28;20085;-64
2022/08/12 04:54:40;;;;;;;3.72;1.70;;;15.60;92.70;;;15.05;100.00;97745.28;4941027;28;20158;-64
2022/08/12 04:57:08;;;;;;;3.97;2.00;;;15.70;92.80;;;15.07;100.00;97745.19;4956908;28;20043;-64
2022/08/12 04:59:36;;;;;;;4.88;2.17;;;15.70;92.90;;;15.07;100.00;97745.19;4939210;29;20342;-64
2022/08/12 05:02:16;;;;;;;3.65;1.90;;;15.80;92.80;;;15.16;100.00;97742.03;4943477;28;20536;-64
2022/08/12 05:04:55;;;;;;;11.77;2.15;;;15.80;92.90;;;15.22;100.00;97746.91;4945424;28;20043;-64
2022/08/12 05:07:27;;;;;;;5.20;1.88;;;15.90;93.00;;;15.33;100.00;97737.63;4957988;28;20083;-64
2022/08/12 05:09:54;;;;;;;7.95;1.95;;;15.90;92.80;;;15.48;100.00;97739.28;4939973;28;20082;-64
2022/08/12 05:12:35;;;;;;;3.85;1.50;;;16.00;92.80;;;15.48;100.00;97740.13;4939862;28;20055;-64
2022/08/12 05:15:05;;;;;;;2.65;1.50;;;16.10;92.80;;;15.62;100.00;97743.69;4956442;28;20210;-64
2022/08/12 05:17:52;;;;;;;5.72;1.90;;;16.20;92.60;;;15.84;100.00;97741.50;4937881;28;20055;-64
2022/08/12 05:20:21;;;;;;;4.15;1.63;;;16.40;92.40;;;15.96;100.00;97746.91;4940142;28;20130;-64
2022/08/12 05:22:49;;;;;;;4.47;2.13;;;16.50;92.30;;;16.08;100.00;97747.00;4939476;28;20570;-65
2022/08/12 05:25:24;;;;;;;3.58;1.70;;;16.60;92.20;;;16.17;100.00;97756.06;4942169;28;20131;-64
2022/08/12 05:27:52;;;;;;;3.53;1.80;;;16.70;92.00;;;16.33;100.00;97752.47;4957207;28;20092;-64
2022/08/12 05:30:26;;;;;;;7.32;1.80;;;16.90;91.80;;;16.40;100.00;97746.75;4940950;28;20051;-64
2022/08/12 05:32:54;;;;;;;6.32;1.60;;;17.00;91.80;;;16.60;100.00;97757.72;4951925;28;20094;-64
2022/08/12 05:35:26;;;;;;;7.30;1.70;;;17.20;91.60;;;16.76;100.00;97758.41;4956552;28;20146;-64
2022/08/12 05:38:54;;;;;;;4.82;1.30;;;17.30;91.70;;;16.91;100.00;97765.31;4942300;29;20417;-64
2022/08/12 05:40:43;;;;;;;4.10;1.70;;;17.60;91.40;;;17.12;100.00;97757.81;4938380;28;20123;-65
2022/08/12 05:43:10;;;;;;;7.75;1.67;;;17.70;91.10;;;17.27;100.00;97763.84;4940604;28;20055;-64
2022/08/12 05:45:37;;;;;;;5.68;2.05;;;17.90;90.70;;;17.37;100.00;97760.59;4938725;28;20806;-65
2022/08/12 05:48:11;;;;;;;6.88;1.67;;;18.10;90.40;;;17.54;100.00;97760.31;4952165;28;20048;-64
2022/08/12 05:50:39;;;;;;;6.43;1.85;;;18.30;90.10;;;17.70;100.00;97758.31;4938833;28;20128;-65
2022/08/12 05:53:07;;;;;;;6.07;1.40;;;18.40;89.30;;;17.90;100.00;97756.13;4942629;28;20047;-64
2022/08/12 05:55:35;;;;;;;5.80;1.67;;;18.60;89.60;;;18.12;100.00;97758.91;4938666;28;20059;-64
2022/08/12 05:58:04;;;;;;;5.00;1.60;;;18.80;88.80;;;18.25;100.00;97758.06;4939926;28;20129;-64
2022/08/12 06:00:31;;;;;;;4.80;1.88;;;19.00;87.60;;;18.37;100.00;97755.38;4955588;28;20444;-65
2022/08/12 06:03:02;;;;;;;6.72;1.60;;;19.20;87.30;;;18.56;100.00;97752.28;4943466;28;20065;-64
2022/08/12 06:05:36;;;;;;;8.40;1.48;;;19.30;86.30;;;18.85;100.00;97748.53;4940097;28;20222;-64
2022/08/12 06:08:20;;;;;;;7.90;1.30;;;19.50;85.00;;;19.05;100.00;97739.16;4935798;28;20047;-64
2022/08/12 06:10:50;;;;;;;5.80;1.60;;;19.60;83.70;;;19.18;100.00;97747.78;4941027;28;20130;-64
2022/08/12 06:13:18;;;;;;;5.63;1.42;;;19.80;83.40;;;19.32;100.00;97750.25;4938293;28;20367;-64
2022/08/12 06:16:06;;;;;;;4.65;1.40;;;20.00;83.40;;;19.42;100.00;97748.56;4937897;28;20452;-64
2022/08/12 06:18:33;;;;;;;3.45;1.60;;;20.10;82.30;;;19.54;100.00;97745.97;4939442;28;20055;-64
2022/08/12 06:21:00;;;;;;;6.40;1.17;;;20.30;82.10;;;19.72;100.00;97746.38;4938370;28;20138;-64
2022/08/12 06:23:29;;;;;;;7.13;1.35;;;20.40;82.00;;;19.84;100.00;97748.91;4939147;28;20047;-64
2022/08/12 06:25:57;;;;;;;3.30;1.23;;;20.50;81.50;;;19.95;100.00;97749.88;4940785;28;20560;-63
2022/08/12 06:28:25;;;;;;;3.80;0.98;;;20.60;81.10;;;20.05;100.00;97750.84;4940045;28;20051;-63
2022/08/12 06:30:52;;;;;;;3.25;1.58;;;20.80;80.90;;;20.15;100.00;97750.94;4943473;28;20189;-64
2022/08/12 06:33:43;;;;;;;2.55;1.25;;;20.90;80.50;;;20.29;100.00;97760.41;4940231;28;20047;-63
2022/08/12 06:36:30;;;;;;;7.45;1.30;;;21.10;80.40;;;20.40;100.00;97755.94;4942042;28;20433;-64
2022/08/12 06:38:59;;;;;;;3.85;1.30;;;21.20;79.70;;;20.54;100.00;97754.84;4941657;28;20043;-64
2022/08/12 06:44:32;;;;;;;6.05;1.20;;;21.40;78.70;;;20.68;100.00;97746.66;4943069;28;20066;-64
2022/08/12 06:46:59;;;;;;;4.93;1.50;;;21.40;78.50;;;20.72;100.00;97744.63;4937728;29;20452;-64
2022/08/12 06:49:32;;;;;;;3.55;1.10;;;21.50;78.70;;;20.90;100.00;97742.28;4941170;28;20464;-64
2022/08/12 06:52:00;;;;;;;6.50;1.27;;;21.60;78.70;;;20.93;100.00;97739.38;4937005;28;20054;-65
2022/08/12 06:54:27;;;;;;;3.78;1.38;;;21.70;78.30;;;21.02;100.00;97743.06;4940354;28;20139;-64
2022/08/12 06:56:59;;;;;;;4.60;1.30;;;21.80;78.30;;;21.11;100.00;97739.69;4938789;28;20058;-65
2022/08/12 06:59:31;;;;;;;2.60;1.30;;;21.90;78.00;;;21.27;100.00;97733.97;4958355;28;20062;-64
2022/08/12 07:01:58;;;;;;;7.32;1.77;;;22.00;77.80;;;21.23;100.00;97732.53;4941472;28;20066;-64
2022/08/12 07:04:25;;;;;;;3.03;1.20;;;22.00;77.50;;;21.36;100.00;97737.63;4944227;28;20131;-64
2022/08/12 07:07:04;;;;;;;6.22;1.48;;;22.20;77.40;;;21.42;100.00;97729.22;4939568;28;20650;-64
2022/08/12 07:09:31;;;;;;;5.97;1.70;;;22.20;77.60;;;21.48;100.00;97733.97;4953839;28;20139;-65
2022/08/12 07:12:20;;;;;;;6.20;1.20;;;22.30;77.30;;;21.51;100.00;97736.38;4937088;29;20058;-64
2022/08/12 07:14:51;;;;;;;4.20;1.30;;;22.40;77.20;;;21.61;100.00;97739.91;4940026;28;20059;-64
2022/08/12 07:17:18;;;;;;;3.92;1.00;;;22.40;77.00;;;21.71;100.00;97729.38;4937388;28;20056;-64
2022/08/12 07:19:45;;;;;;;6.25;1.27;;;22.40;76.40;;;21.72;100.00;97733.72;4937906;29;20057;-65
2022/08/12 07:22:15;;;;;;;6.90;1.48;;;22.50;76.40;;;21.75;100.00;97725.50;4958018;28;20086;-64
2022/08/12 07:24:42;;;;;;;2.85;1.30;;;22.60;76.50;;;21.75;100.00;97717.56;4946362;28;20135;-64
2022/08/12 07:27:09;;;;;;;10.40;1.60;;;22.60;76.40;;;21.82;100.00;97729.28;4941728;29;20750;-64
2022/08/12 07:29:36;;;;;;;10.57;1.73;;;22.70;76.20;;;21.86;100.00;97725.41;4941511;28;20143;-64
2022/08/12 07:32:23;;;;;;;10.52;1.25;;;22.70;76.20;;;21.90;100.00;97726.84;4940360;29;20056;-64
2022/08/12 07:34:55;;;;;;;2.80;1.40;;;22.70;75.90;;;22.08;100.00;97736.78;4941553;29;20481;-64
2022/08/12 07:37:22;;;;;;;5.53;1.10;;;22.80;76.20;;;22.24;100.00;97739.78;4942068;29;20138;-64
2022/08/12 07:39:49;;;;;;;2.22;1.02;;;22.80;76.10;;;22.22;100.00;97739.09;4938426;28;20047;-64
2022/08/12 07:42:27;;;;;;;5.78;1.30;;;22.90;75.90;;;22.26;100.00;97742.28;4946430;28;20051;-64
2022/08/12 07:44:55;;;;;;;3.08;1.10;;;23.10;75.50;;;22.38;100.00;97748.31;4939599;28;20477;-64
2022/08/12 07:47:23;;;;;;;2.90;1.20;;;23.10;75.50;;;22.33;100.00;97746.91;4943208;28;20047;-64
2022/08/12 07:49:51;;;;;;;4.97;1.10;;;23.00;75.30;;;22.38;100.00;97740.38;4944657;29;20087;-64
2022/08/12 07:52:34;;;;;;;7.28;1.10;;;23.20;75.20;;;22.56;100.00;97741.41;4941125;28;20062;-64
2022/08/12 07:55:02;;;;;;;2.95;1.10;;;23.20;75.60;;;22.68;100.00;97739.47;4939977;28;20453;-64
2022/08/12 07:57:31;;;;;;;3.50;1.25;;;23.30;75.10;;;22.76;100.00;97744.88;4952113;28;20059;-64
2022/08/12 08:00:04;;;;;;;7.45;1.23;;;23.40;75.20;;;22.98;100.00;97739.31;4943275;28;20077;-63
2022/08/12 08:02:32;;;;;;;5.43;1.00;;;23.60;74.80;;;22.96;100.00;97743.09;4956575;28;20063;-64
2022/08/12 08:05:00;;;;;;;4.90;1.42;;;23.80;74.60;;;23.13;100.00;97734.50;4957029;28;20509;-64
2022/08/12 08:07:28;;;;;;;3.85;1.30;;;23.90;74.20;;;23.11;100.00;97731.16;4937932;29;20144;-64
2022/08/12 08:10:02;;;;;;;4.97;1.20;;;23.90;73.40;;;23.23;100.00;97738.94;4954056;28;20063;-64
2022/08/12 08:15:16;;;;;;;5.63;1.30;;;23.90;73.20;;;23.11;100.00;97749.69;4939139;28;20061;-64
2022/08/12 08:18:05;;;;;;;4.45;1.48;;;23.80;73.40;;;23.28;100.00;97744.66;4939973;28;20135;-64
2022/08/12 08:20:39;;;;;;;2.70;1.10;;;23.90;73.90;;;23.41;100.00;97734.59;4937095;29;20170;-64
2022/08/12 08:23:17;;;;;;;2.47;1.00;;;24.00;73.00;;;23.65;100.00;97735.94;4934816;28;20485;-64
2022/08/12 08:25:44;;;;;;;3.75;1.10;;;24.40;73.20;;;23.80;100.00;97743.31;4941470;28;20055;-64
2022/08/12 08:28:15;;;;;;;2.78;0.90;;;24.60;73.00;;;23.86;100.00;97739.25;4943914;29;20046;-64
2022/08/12 08:30:45;;;;;;;4.25;1.20;;;;;;;23.95;100.00;97748.16;4944741;29;20496;-64
2022/08/12 08:33:14;;;;;;;3.63;1.20;;;24.80;71.60;;;23.77;100.00;97745.44;4941969;28;20078;-64
2022/08/12 08:36:01;;;;;;;3.80;1.20;;;24.80;71.80;;;24.10;100.00;97740.53;4945407;28;20055;-65
2022/08/12 08:38:28;;;;;;;5.38;1.10;;;25.00;71.60;;;24.51;100.00;97746.38;4942051;28;20054;-64
2022/08/12 08:44:09;;;;;;;2.28;0.90;;;25.50;70.70;;;24.80;100.00;97754.97;4935696;28;20051;-65
2022/08/12 08:46:38;;;;;;;1.38;0.80;;;25.70;70.10;;;25.34;100.00;97730.22;4932954;28;20347;-64
2022/08/12 08:49:07;;;;;;;3.95;1.00;;;26.00;70.40;;;25.84;100.00;97727.75;4941875;28;20122;-65
2022/08/12 08:51:35;;;;;;;3.53;1.17;;;26.40;69.40;;;25.35;98.16;97731.91;4948753;28;20472;-65
2022/08/12 08:54:02;;;;;;;5.97;0.90;;;26.40;68.40;;;25.46;97.24;97734.31;4939155;29;20051;-64
2022/08/12 08:56:29;;;;;;;4.05;0.95;;;26.30;68.30;;;25.69;95.52;97734.63;4942038;28;20059;-64
2022/08/12 08:58:56;;;;;;;5.15;1.10;;;26.40;67.90;;;25.82;94.76;97729.72;4958227;28;20138;-64
2022/08/12 09:01:25;;;;;;;2.28;0.90;;;26.50;67.80;;;26.18;93.62;97728.75;4942350;28;20055;-64
2022/08/12 09:03:55;;;;;;;4.10;1.00;;;27.10;67.60;;;26.32;90.90;97725.50;4942070;29;20055;-64
2022/08/12 09:06:42;;;;;;;1.65;0.80;;;27.20;66.70;;;27.20;89.42;97730.34;4939754;28;20053;-66
2022/08/12 09:09:22;;;;;;;1.17;0.80;;;27.40;67.10;;;26.85;86.67;97736.78;4939036;29;20062;-65
2022/08/12 09:14:42;;;;;;;2.22;0.80;;;27.70;65.60;;;27.89;79.01;97727.25;4944624;28;20062;-64
2022/08/12 09:17:32;;;;;;;5.72;0.90;;;27.80;65.80;;;26.62;81.34;97726.75;4952355;28;20532;-64
2022/08/12 09:20:20;;;;;;;2.13;0.73;;;27.50;64.90;;;26.84;82.16;97724.47;4943017;28;20070;-64
2022/08/12 09:22:56;;;;;;;1.10;0.70;;;27.20;65.30;;;27.53;79.67;97720.50;4943081;28;20045;-64
2022/08/12 09:25:25;;;;;;;4.82;0.80;;;27.60;65.40;;;27.67;79.28;97721.63;4957064;28;20131;-65
2022/08/12 09:28:00;;;;;;;4.88;1.02;;;27.60;65.40;;;28.03;75.46;97723.91;4938243;28;20051;-64
2022/08/12 09:30:32;;;;;;;2.83;0.70;;;27.90;65.00;;;28.72;75.00;97718.75;4939752;28;20109;-64
2022/08/12 09:33:08;;;;;;;3.80;0.73;;;28.20;65.10;;;28.03;69.62;97723.03;4940979;28;20139;-64
2022/08/12 09:35:45;;;;;;;4.75;1.00;;;28.20;63.20;;;28.77;71.56;97713.69;4938335;28;20046;-64
2022/08/12 09:38:31;;;;;;;3.45;0.80;;;28.40;64.40;;;29.32;69.41;97706.44;4952732;28;20067;-65
2022/08/12 09:40:58;;;;;;;1.83;0.70;;;28.70;64.00;;;28.41;66.95;97718.72;4952396;28;20158;-65
2022/08/12 09:46:52;;;;;;;5.47;0.80;;;29.00;62.90;;;28.21;68.02;97704.97;4941204;28;20065;-65
2022/08/12 09:49:23;;;;;;;2.47;0.85;;;28.50;62.60;;;28.85;65.67;97706.63;4942823;29;20062;-65
2022/08/12 09:51:53;;;;;;;3.63;0.80;;;28.80;62.60;;;29.84;61.19;97695.94;4941554;28;20059;-65
2022/08/12 09:54:24;;;;;;;2.93;0.80;;;29.10;61.80;;;30.66;60.45;97690.34;4941318;28;20108;-65
2022/08/12 09:57:08;;;;;;;3.33;0.80;;;29.50;62.50;;;30.68;58.50;97691.00;4938536;28;20054;-64
2022/08/12 09:59:55;;;;;;;5.70;0.80;;;29.90;61.80;;;30.89;58.19;97684.00;4938573;28;20062;-65
2022/08/12 10:03:20;;;;;;;2.42;0.77;;;30.30;61.50;;;30.75;54.69;97680.34;4941375;28;20393;-65
2022/08/12 10:06:01;;;;;;;1.73;0.60;;;30.40;60.10;;;30.96;58.51;97683.03;4883089;29;20172;-65
2022/08/12 10:08:48;;;;;;;2.10;0.80;;;30.60;61.60;;;30.83;57.14;97667.63;4940292;28;20051;-64
2022/08/12 10:14:26;;;;;;;3.45;0.80;;;30.40;61.70;;;30.05;55.58;97665.72;4937608;28;19990;-65
2022/08/12 10:17:00;;;;;;;2.83;0.80;;;30.00;59.70;;;30.16;55.15;97660.72;4940765;28;20155;-65
2022/08/12 10:19:27;;;;;;;2.53;0.68;;;30.10;60.00;;;30.95;54.15;97659.09;4938697;28;20130;-65
2022/08/12 10:22:04;;;;;;;5.43;0.90;;;30.50;59.80;;;31.01;50.82;97661.84;4942019;28;20047;-66
2022/08/12 10:30:39;;;;;;;2.42;0.90;;;30.40;60.10;;;30.67;54.60;97654.50;4938400;28;20142;-65
2022/08/12 10:33:14;;;;;;;3.78;0.73;;;30.20;60.00;;;30.67;55.63;97648.31;4937030;29;20095;-65
2022/08/12 10:35:45;;;;;;;2.33;0.60;;;30.30;60.00;;;31.91;53.60;97643.28;4935594;28;20097;-65
2022/08/12 10:38:14;;;;;;;5.22;0.70;;;30.80;60.50;;;30.81;50.28;97644.72;4938037;28;20071;-65
2022/08/12 10:43:48;;;;;;;2.00;0.80;;;31.30;58.90;;;31.21;48.46;97642.41;4937118;28;20079;-66
2022/08/12 10:46:23;;;;;;;2.67;0.63;;;31.00;58.00;;;31.94;48.24;97644.72;4937654;28;20146;-66
2022/08/12 10:48:56;;;;;;;3.70;0.70;;;31.30;58.00;;;31.79;47.71;97632.25;4939856;28;20048;-65
2022/08/12 10:51:44;;;;;;;2.35;0.75;;;31.40;58.60;;;30.69;49.32;97641.72;4954763;28;20081;-66
2022/08/12 10:54:32;;;;;;;8.20;0.80;;;31.10;57.90;;;31.10;47.30;97629.53;4945955;28;20047;-67
2022/08/12 10:57:02;;;;;;;2.22;0.70;;;31.10;57.10;;;31.54;49.51;97633.78;4958390;28;20047;-66
2022/08/12 10:59:30;;;;;;;3.28;0.80;;;31.30;58.50;;;32.25;46.55;97631.66;4961756;28;20070;-64
2022/08/12 11:02:17;;;;;;;2.17;0.85;;;31.60;57.50;;;31.91;44.93;97637.06;4941809;28;20160;-65
2022/08/12 11:05:04;;;;;;;4.65;0.93;;;31.70;57.00;;;31.03;46.25;97634.84;4945901;28;20065;-66
2022/08/12 11:07:53;;;;;;;4.00;0.73;;;31.30;56.90;;;31.28;46.95;97635.25;4940777;28;20063;-66
2022/08/12 11:10:40;;;;;;;4.80;0.80;;;31.20;57.10;;;31.29;46.59;97633.38;4945229;28;20062;-65
2022/08/12 11:13:11;;;;;;;3.13;0.77;;;31.40;57.70;;;33.05;48.08;97622.91;4942379;28;20709;-66
2022/08/12 11:15:38;;;;;;;2.53;0.88;;;31.90;59.20;;;32.27;43.27;97631.44;4945104;28;20729;-65
2022/08/12 11:18:26;;;;;;;3.20;0.85;;;32.00;56.50;;;30.96;47.17;97631.28;4944840;28;20558;-66
2022/08/12 11:20:53;;;;;;;6.95;0.90;;;31.40;56.70;;;31.82;45.82;97625.69;4945132;29;20150;-66
2022/08/12 11:23:24;;;;;;;1.63;0.57;;;31.50;57.10;;;31.21;46.54;97629.00;4951740;28;20064;-65
2022/08/12 11:26:05;;;;;;;1.63;0.63;;;31.30;56.90;;;31.33;46.89;97624.75;4939942;28;20107;-65
2022/08/12 11:28:34;;;;;;;1.85;0.63;;;31.30;57.20;;;31.46;47.55;97624.88;4956702;28;20161;-66
2022/08/12 11:31:06;;;;;;;4.18;0.77;;;31.20;57.70;;;31.34;46.20;97629.09;4941545;28;20039;-66
2022/08/12 11:33:40;;;;;;;4.25;0.70;;;31.30;57.20;;;31.15;46.65;97619.88;4941106;28;20481;-65
2022/08/12 11:36:27;;;;;;;5.03;0.80;;;31.60;57.40;;;30.84;46.43;97613.06;4938181;28;20059;-65
2022/08/12 11:38:55;;;;;;;1.95;0.70;;;31.80;57.10;;;31.52;46.35;97609.84;4940279;28;20047;-65
2022/08/12 11:41:23;;;;;;;4.00;0.88;;;31.80;56.80;;;31.42;46.98;97607.50;4938836;28;20059;-65
2022/08/12 11:44:01;;;;;;;5.43;0.80;;;32.10;57.00;;;32.72;42.51;97604.88;4943416;28;20055;-65
2022/08/12 11:46:50;;;;;;;2.83;0.70;;;32.30;56.00;;;32.13;42.50;97605.59;4941394;28;20046;-65
2022/08/12 11:49:22;;;;;;;6.18;0.70;;;32.40;55.70;;;32.83;43.85;97596.22;4955796;28;20468;-66
2022/08/12 11:51:58;;;;;;;1.27;0.70;;;32.50;56.30;;;31.51;44.20;97593.94;4949747;28;20043;-65
2022/08/12 11:54:25;;;;;;;3.17;0.80;;;32.40;55.80;;;31.29;46.15;97596.66;4943238;28;20142;-66
2022/08/12 11:56:57;;;;;;;7.63;0.85;;;32.20;56.50;;;31.51;46.04;97604.69;4941241;28;20067;-65
2022/08/12 11:59:27;;;;;;;3.03;0.95;;;32.30;56.50;;;31.68;46.13;97588.06;4942754;28;20141;-64
2022/08/12 12:02:14;;;;;;;1.55;0.75;;;31.90;56.60;;;31.95;45.07;97595.38;4940318;29;20317;-65
2022/08/12 12:04:49;;;;;;;2.25;0.70;;;31.90;56.60;;;32.33;44.45;97598.41;4938646;28;20561;-65
2022/08/12 12:07:21;;;;;;;6.63;0.80;;;32.00;56.70;;;31.26;45.38;97583.66;4941281;28;20051;-64
2022/08/12 12:10:13;;;;;;;3.20;0.70;;;31.50;56.60;;;32.20;45.54;97587.63;4940090;28;20062;-65
2022/08/12 12:12:42;;;;;;;1.42;0.73;;;31.90;57.30;;;32.09;44.04;97587.19;4944143;28;20122;-65
2022/08/12 12:15:17;;;;;;;4.07;0.70;;;32.10;56.60;;;32.88;41.60;97582.16;4949663;28;20551;-65
2022/08/12 12:17:52;;;;;;;1.67;0.70;;;32.20;55.80;;;32.36;42.60;97581.88;4941706;28;20086;-65
2022/08/12 12:20:22;;;;;;;1.90;0.70;;;32.20;56.10;;;31.68;44.06;97569.28;4942386;28;20055;-64
2022/08/12 12:22:56;;;;;;;3.33;0.80;;;32.30;56.30;;;31.54;44.55;97570.22;4954049;28;20749;-64
2022/08/12 12:25:23;;;;;;;2.92;0.82;;;31.80;56.10;;;32.43;42.95;97569.31;4940589;28;20071;-65
2022/08/12 12:28:11;;;;;;;3.45;0.80;;;31.80;56.50;;;32.99;43.91;97565.38;4944673;28;20047;-65
2022/08/12 12:30:59;;;;;;;3.30;0.65;;;32.30;57.50;;;32.87;41.28;97554.44;4943486;28;20268;-64
2022/08/12 12:33:26;;;;;;;2.17;0.75;;;32.30;56.20;;;33.38;42.12;97552.09;4944165;29;20429;-65